Time;durP1;ratioP1;P1;durP2;ratioP2;P2;SDS_P1;SDS_P2;PMS_P1;PMS_P2;Temp;Humidity;BMP_temperature;BMP_pressure;BME280_temperature;BME280_humidity;BME280_pressure;Samples;Min_cycle;Max_cycle;Signal;HPM_P1;HPM_P2
2023/10/31 00:01:42;;;;;;;12.73;9.17;;;;;;;;;;6256575;22;20018;-71
2023/10/31 00:04:08;;;;;;;16.63;9.67;;;;;;;;;;6258032;22;20225;-73
2023/10/31 00:06:33;;;;;;;17.98;10.35;;;;;;;;;;6254220;22;20210;-70
2023/10/31 00:09:03;;;;;;;15.55;10.20;;;;;;;;;;6252185;22;20000;-71
2023/10/31 00:11:28;;;;;;;16.75;10.73;;;;;;;;;;6252860;22;20015;-73
2023/10/31 00:13:56;;;;;;;17.45;9.85;;;;;;;;;;6251124;22;20701;-68
2023/10/31 00:16:21;;;;;;;16.40;10.40;;;;;;;;;;6255017;22;20697;-71
2023/10/31 00:18:47;;;;;;;16.38;10.00;;;;;;;;;;6251979;22;20000;-69
2023/10/31 00:21:12;;;;;;;15.80;10.13;;;;;;;;;;6253280;22;20039;-72
2023/10/31 00:23:44;;;;;;;16.77;10.30;;;;;;;;;;6252045;22;20011;-70
2023/10/31 00:26:09;;;;;;;17.17;9.95;;;;;;;;;;6252547;22;19999;-72
2023/10/31 00:28:40;;;;;;;15.70;9.52;;;;;;;;;;6250098;22;20597;-72
2023/10/31 00:31:06;;;;;;;18.13;9.85;;;;;;;;;;6251556;22;20546;-69
2023/10/31 00:33:32;;;;;;;15.73;9.27;;;;;;;;;;6252744;22;20004;-70
2023/10/31 00:35:57;;;;;;;17.50;10.02;;;;;;;;;;6252772;22;20049;-70
2023/10/31 00:38:22;;;;;;;17.07;9.90;;;;;;;;;;6257199;22;20121;-69
2023/10/31 00:40:47;;;;;;;18.27;10.17;;;;;;;;;;6251875;22;20448;-69
2023/10/31 00:43:13;;;;;;;14.53;9.37;;;;;;;;;;6256182;22;20540;-69
2023/10/31 00:45:38;;;;;;;12.77;8.03;;;;;;;;;;6262255;22;20245;-68
2023/10/31 00:48:03;;;;;;;13.88;8.07;;;;;;;;;;6257960;22;20261;-72
2023/10/31 00:50:29;;;;;;;16.35;8.93;;;;;;;;;;6285713;22;20070;-72
2023/10/31 00:52:54;;;;;;;17.02;9.70;;;;;;;;;;6286336;22;20002;-73
2023/10/31 00:55:19;;;;;;;16.73;8.82;;;;;;;;;;6286468;22;19996;-72
2023/10/31 00:57:45;;;;;;;12.27;7.67;;;;;;;;;;6258125;22;19999;-70
2023/10/31 01:00:13;;;;;;;13.70;7.93;;;;;;;;;;6286983;22;20239;-73
2023/10/31 01:02:38;;;;;;;12.98;7.22;;;;;;;;;;6257256;22;20245;-69
2023/10/31 01:05:03;;;;;;;13.60;7.75;;;;;;;;;;6259425;22;20037;-70
2023/10/31 01:07:29;;;;;;;13.27;7.45;;;;;;;;;;6256444;22;20086;-69
2023/10/31 01:09:54;;;;;;;11.15;6.45;;;;;;;;;;6258802;22;20619;-70
2023/10/31 01:12:19;;;;;;;11.50;6.47;;;;;;;;;;6257792;22;20130;-71
2023/10/31 01:14:47;;;;;;;13.52;6.80;;;;;;;;;;6286471;22;20206;-69
2023/10/31 01:17:12;;;;;;;12.38;6.75;;;;;;;;;;6254860;22;20082;-71
2023/10/31 01:19:40;;;;;;;12.20;6.68;;;;;;;;;;6286512;22;20071;-71
2023/10/31 01:22:07;;;;;;;11.63;6.22;;;;;;;;;;6259840;22;19995;-70
2023/10/31 01:24:35;;;;;;;10.63;6.30;;;;;;;;;;6256861;22;20277;-70
2023/10/31 01:27:05;;;;;;;11.48;6.30;;;;;;;;;;6285690;22;19995;-71
2023/10/31 01:29:30;;;;;;;12.85;6.07;;;;;;;;;;6256341;22;19999;-69
2023/10/31 01:31:56;;;;;;;10.07;5.68;;;;;;;;;;6255874;22;20403;-70
2023/10/31 01:34:21;;;;;;;10.88;5.43;;;;;;;;;;6257315;22;20084;-70
2023/10/31 01:36:46;;;;;;;11.03;5.70;;;;;;;;;;6288241;22;20079;-71
2023/10/31 01:39:14;;;;;;;9.00;5.55;;;;;;;;;;6257419;22;20256;-69
2023/10/31 01:41:43;;;;;;;11.57;5.22;;;;;;;;;;6256797;22;20445;-69
2023/10/31 01:44:10;;;;;;;8.88;5.72;;;;;;;;;;6282552;22;20052;-71
2023/10/31 01:46:37;;;;;;;9.40;5.03;;;;;;;;;;6285378;22;20255;-70
2023/10/31 01:49:03;;;;;;;9.23;5.65;;;;;;;;;;6283297;22;20472;-68
2023/10/31 01:51:28;;;;;;;7.57;3.50;;;;;;;;;;6256056;22;20022;-69
2023/10/31 01:53:55;;;;;;;3.08;0.80;;;;;;;;;;6281933;22;20028;-72
2023/10/31 01:56:20;;;;;;;4.35;1.30;;;;;;;;;;6283208;22;19999;-71
2023/10/31 01:58:47;;;;;;;1.77;0.45;;;;;;;;;;6256716;22;20086;-72
2023/10/31 02:01:14;;;;;;;1.30;0.50;;;;;;;;;;6253802;22;20003;-69
2023/10/31 02:03:40;;;;;;;2.22;0.60;;;;;;;;;;6285117;22;20076;-70
2023/10/31 02:06:05;;;;;;;2.47;0.60;;;;;;;;;;6281315;22;20717;-70
2023/10/31 02:08:30;;;;;;;2.60;0.60;;;;;;;;;;6257845;22;20339;-73
2023/10/31 02:10:56;;;;;;;1.00;0.40;;;;;;;;;;6257147;22;20518;-72
2023/10/31 02:13:21;;;;;;;2.15;0.40;;;;;;;;;;6255990;22;20371;-73
2023/10/31 02:15:49;;;;;;;1.27;0.30;;;;;;;;;;6255779;22;20034;-68
2023/10/31 02:18:14;;;;;;;0.80;0.20;;;;;;;;;;6284099;22;20064;-69
2023/10/31 02:20:41;;;;;;;0.55;0.20;;;;;;;;;;6285293;22;20732;-72
2023/10/31 02:23:07;;;;;;;2.08;0.43;;;;;;;;;;6257138;22;20707;-71
2023/10/31 02:25:32;;;;;;;1.83;0.20;;;;;;;;;;6257342;22;19999;-70
2023/10/31 02:27:57;;;;;;;1.15;0.20;;;;;;;;;;6254565;22;20000;-67
2023/10/31 02:30:23;;;;;;;0.77;0.20;;;;;;;;;;6284211;22;20014;-68
2023/10/31 02:32:48;;;;;;;0.47;0.10;;;;;;;;;;6257425;22;20086;-68
2023/10/31 02:35:17;;;;;;;0.55;0.10;;;;;;;;;;6282559;22;20551;-70
2023/10/31 02:37:45;;;;;;;0.70;0.10;;;;;;;;;;6285662;22;20007;-70
2023/10/31 02:40:10;;;;;;;0.88;0.20;;;;;;;;;;6254979;22;20261;-70
2023/10/31 02:42:36;;;;;;;0.95;0.20;;;;;;;;;;6284145;22;20456;-71
2023/10/31 02:45:01;;;;;;;1.13;0.20;;;;;;;;;;6283284;22;20007;-70
2023/10/31 02:47:27;;;;;;;2.67;1.02;;;;;;;;;;6287530;22;19999;-70
2023/10/31 02:49:54;;;;;;;1.45;0.22;;;;;;;;;;6256608;22;20038;-72
2023/10/31 02:52:22;;;;;;;0.73;0.22;;;;;;;;;;6257761;22;20083;-70
2023/10/31 02:54:47;;;;;;;0.60;0.10;;;;;;;;;;6284376;22;20002;-71
2023/10/31 02:57:14;;;;;;;2.35;0.57;;;;;;;;;;6261693;22;20086;-69
2023/10/31 02:59:40;;;;;;;3.05;0.30;;;;;;;;;;6256839;22;20344;-70
2023/10/31 03:02:05;;;;;;;0.93;0.20;;;;;;;;;;6259001;22;20679;-70
2023/10/31 03:04:33;;;;;;;0.32;0.15;;;;;;;;;;6287227;22;19999;-72
2023/10/31 03:06:58;;;;;;;0.90;0.22;;;;;;;;;;6256560;22;19995;-70
2023/10/31 03:09:25;;;;;;;0.45;0.10;;;;;;;;;;6259523;22;20002;-71
2023/10/31 03:11:51;;;;;;;0.98;0.20;;;;;;;;;;6256270;22;20008;-71
2023/10/31 03:14:16;;;;;;;2.63;0.30;;;;;;;;;;6286257;22;20084;-73
2023/10/31 03:16:41;;;;;;;0.35;0.10;;;;;;;;;;6284328;22;20289;-74
2023/10/31 03:19:06;;;;;;;0.43;0.20;;;;;;;;;;6286244;22;19995;-74
2023/10/31 03:21:32;;;;;;;0.60;0.20;;;;;;;;;;6283425;22;20010;-74
2023/10/31 03:23:59;;;;;;;1.27;0.10;;;;;;;;;;6257224;22;20424;-74
2023/10/31 03:26:27;;;;;;;0.45;0.08;;;;;;;;;;6283732;22;20951;-73
2023/10/31 03:28:57;;;;;;;0.30;0.10;;;;;;;;;;6282280;22;20030;-71
2023/10/31 03:31:22;;;;;;;0.10;0.00;;;;;;;;;;6258520;22;20017;-72
2023/10/31 03:33:47;;;;;;;0.90;0.20;;;;;;;;;;6257113;22;19999;-74
2023/10/31 03:36:13;;;;;;;0.80;0.10;;;;;;;;;;6258150;22;20003;-71
2023/10/31 03:38:38;;;;;;;0.32;0.15;;;;;;;;;;6257143;22;20480;-72
2023/10/31 03:41:03;;;;;;;0.97;0.20;;;;;;;;;;6256772;22;20011;-70
2023/10/31 03:43:31;;;;;;;1.00;0.10;;;;;;;;;;6259187;22;20229;-71
2023/10/31 03:45:58;;;;;;;0.68;0.15;;;;;;;;;;6282577;22;20094;-69
2023/10/31 03:48:26;;;;;;;0.22;0.10;;;;;;;;;;6259489;22;20389;-74
2023/10/31 03:50:51;;;;;;;0.43;0.10;;;;;;;;;;6257731;22;20015;-70
2023/10/31 03:53:17;;;;;;;1.52;0.20;;;;;;;;;;6285126;22;20059;-70
2023/10/31 03:55:42;;;;;;;0.10;0.10;;;;;;;;;;6256705;22;20023;-71
2023/10/31 03:58:07;;;;;;;0.10;0.10;;;;;;;;;;6282896;22;20058;-71
2023/10/31 04:00:33;;;;;;;0.20;0.10;;;;;;;;;;6283872;22;20003;-71
2023/10/31 04:02:58;;;;;;;0.63;0.17;;;;;;;;;;6284036;22;20991;-69
2023/10/31 04:05:23;;;;;;;0.10;0.10;;;;;;;;;;6286188;22;20278;-70
2023/10/31 04:07:51;;;;;;;0.68;0.15;;;;;;;;;;6257140;22;20226;-71
2023/10/31 04:10:20;;;;;;;0.43;0.20;;;;;;;;;;6287637;22;20007;-69
2023/10/31 04:12:48;;;;;;;0.43;0.10;;;;;;;;;;6257649;22;20010;-68
2023/10/31 04:15:13;;;;;;;0.30;0.10;;;;;;;;;;6259138;22;20393;-70
2023/10/31 04:17:38;;;;;;;0.32;0.10;;;;;;;;;;6258210;22;20476;-70
2023/10/31 04:20:04;;;;;;;0.17;0.05;;;;;;;;;;6260418;22;19999;-68
2023/10/31 04:22:29;;;;;;;0.88;0.00;;;;;;;;;;6260241;22;20744;-72
2023/10/31 04:24:54;;;;;;;0.00;0.00;;;;;;;;;;6260490;22;20080;-70
2023/10/31 04:27:19;;;;;;;0.38;0.00;;;;;;;;;;6285835;22;20021;-71
2023/10/31 04:30:06;;;;;;;0.28;0.10;;;;;;;;;;6286613;22;20460;-69
2023/10/31 04:32:31;;;;;;;0.35;0.10;;;;;;;;;;6285926;22;19995;-70
2023/10/31 04:34:57;;;;;;;0.08;0.08;;;;;;;;;;6261275;22;20075;-70
2023/10/31 04:37:22;;;;;;;0.95;0.20;;;;;;;;;;6285527;22;20006;-73
2023/10/31 04:39:50;;;;;;;0.73;0.10;;;;;;;;;;6259910;22;20433;-70
2023/10/31 04:42:20;;;;;;;1.17;0.17;;;;;;;;;;6254842;22;19999;-69
2023/10/31 04:44:45;;;;;;;1.08;0.05;;;;;;;;;;6256926;22;20061;-70
2023/10/31 04:47:13;;;;;;;3.10;0.35;;;;;;;;;;6257195;22;20019;-68
2023/10/31 04:49:38;;;;;;;0.77;0.20;;;;;;;;;;6256380;22;20006;-70
2023/10/31 04:52:03;;;;;;;0.33;0.10;;;;;;;;;;6256682;22;19999;-70
2023/10/31 04:54:29;;;;;;;0.80;0.20;;;;;;;;;;6283158;22;21093;-69
2023/10/31 04:56:54;;;;;;;0.63;0.20;;;;;;;;;;6260724;22;20192;-69
2023/10/31 04:59:19;;;;;;;0.33;0.10;;;;;;;;;;6284471;22;20000;-66
2023/10/31 05:01:49;;;;;;;0.00;0.00;;;;;;;;;;6286133;22;20773;-68
2023/10/31 05:04:14;;;;;;;0.15;0.10;;;;;;;;;;6287082;22;20210;-68
2023/10/31 05:06:39;;;;;;;0.75;0.20;;;;;;;;;;6284851;22;20003;-68
2023/10/31 05:09:07;;;;;;;0.70;0.20;;;;;;;;;;6287597;22;20329;-68
2023/10/31 05:11:32;;;;;;;1.45;0.30;;;;;;;;;;6257459;22;20699;-67
2023/10/31 05:13:58;;;;;;;2.08;0.20;;;;;;;;;;6285308;22;19999;-68
2023/10/31 05:16:23;;;;;;;1.07;0.13;;;;;;;;;;6253995;22;19999;-67
2023/10/31 05:18:48;;;;;;;1.33;0.32;;;;;;;;;;6285109;22;20317;-67
2023/10/31 05:21:20;;;;;;;1.10;0.20;;;;;;;;;;6257850;22;20691;-68
2023/10/31 05:23:46;;;;;;;0.45;0.10;;;;;;;;;;6255233;22;20283;-71
2023/10/31 05:26:11;;;;;;;1.48;0.22;;;;;;;;;;6256383;22;20007;-69
2023/10/31 05:28:36;;;;;;;0.30;0.10;;;;;;;;;;6282193;22;20674;-69
2023/10/31 05:31:02;;;;;;;0.80;0.20;;;;;;;;;;6257173;22;20619;-69
2023/10/31 05:33:27;;;;;;;1.23;0.35;;;;;;;;;;6284502;22;20210;-69
2023/10/31 05:35:52;;;;;;;1.17;0.15;;;;;;;;;;6284017;22;20094;-69
2023/10/31 05:38:17;;;;;;;1.53;0.20;;;;;;;;;;6257734;22;20006;-69
2023/10/31 05:40:45;;;;;;;0.60;0.13;;;;;;;;;;6254981;22;20251;-69
2023/10/31 05:43:10;;;;;;;2.08;0.40;;;;;;;;;;6257969;22;19999;-68
2023/10/31 05:45:36;;;;;;;3.05;0.30;;;;;;;;;;6254987;22;20816;-68
2023/10/31 05:48:03;;;;;;;0.52;0.20;;;;;;;;;;6285136;22;20023;-67
2023/10/31 05:50:31;;;;;;;1.35;0.20;;;;;;;;;;6284002;22;20003;-68
2023/10/31 05:52:56;;;;;;;0.68;0.10;;;;;;;;;;6284106;22;20013;-69
2023/10/31 05:55:21;;;;;;;0.65;0.20;;;;;;;;;;6284962;22;20073;-70
2023/10/31 05:57:47;;;;;;;0.45;0.10;;;;;;;;;;6253643;22;20007;-71
2023/10/31 06:00:13;;;;;;;0.38;0.10;;;;;;;;;;6256769;22;20014;-71
2023/10/31 06:02:38;;;;;;;2.35;0.30;;;;;;;;;;6280852;22;19995;-73
2023/10/31 06:05:03;;;;;;;0.30;0.00;;;;;;;;;;6258259;22;19999;-71
2023/10/31 06:07:30;;;;;;;0.55;0.10;;;;;;;;;;6257836;22;20007;-71
2023/10/31 06:09:55;;;;;;;0.45;0.10;;;;;;;;;;6255651;22;20076;-73
2023/10/31 06:12:20;;;;;;;0.65;0.10;;;;;;;;;;6287089;22;20416;-71
2023/10/31 06:14:45;;;;;;;0.65;0.10;;;;;;;;;;6283306;22;20110;-74
2023/10/31 06:17:11;;;;;;;0.40;0.17;;;;;;;;;;6258308;22;19999;-73
2023/10/31 06:19:36;;;;;;;0.93;0.15;;;;;;;;;;6282920;22;20647;-72
2023/10/31 06:22:02;;;;;;;0.20;0.03;;;;;;;;;;6284525;22;20037;-70
2023/10/31 06:24:27;;;;;;;0.75;0.15;;;;;;;;;;6281048;22;20052;-71
2023/10/31 06:26:52;;;;;;;1.20;0.10;;;;;;;;;;6281917;22;19995;-72
2023/10/31 06:29:17;;;;;;;0.20;0.10;;;;;;;;;;6284334;22;20220;-72
2023/10/31 06:31:45;;;;;;;0.65;0.20;;;;;;;;;;6282809;22;21028;-71
2023/10/31 06:34:13;;;;;;;0.57;0.20;;;;;;;;;;6286410;22;20058;-73
2023/10/31 06:36:38;;;;;;;0.88;0.20;;;;;;;;;;6283275;22;19999;-73
2023/10/31 06:39:05;;;;;;;0.40;0.10;;;;;;;;;;6284210;22;19999;-75
2023/10/31 06:41:32;;;;;;;1.58;0.20;;;;;;;;;;6255404;22;19999;-71
2023/10/31 06:43:58;;;;;;;0.60;0.20;;;;;;;;;;6279742;22;20022;-72
2023/10/31 06:46:23;;;;;;;1.13;0.10;;;;;;;;;;6280676;22;20921;-71
2023/10/31 06:48:48;;;;;;;1.23;0.20;;;;;;;;;;6281600;22;20006;-72
2023/10/31 06:51:13;;;;;;;1.27;0.20;;;;;;;;;;6254504;22;20351;-74
2023/10/31 06:53:38;;;;;;;0.80;0.10;;;;;;;;;;6283789;22;20214;-74
2023/10/31 06:56:04;;;;;;;1.07;0.10;;;;;;;;;;6284552;22;20881;-73
2023/10/31 06:58:29;;;;;;;1.00;0.32;;;;;;;;;;6281904;22;20256;-74
2023/10/31 07:00:55;;;;;;;1.27;0.30;;;;;;;;;;6256614;22;20046;-74
2023/10/31 07:03:20;;;;;;;0.20;0.10;;;;;;;;;;6252244;22;20222;-75
2023/10/31 07:05:45;;;;;;;0.77;0.20;;;;;;;;;;6253389;22;19999;-74
2023/10/31 07:08:11;;;;;;;1.00;0.20;;;;;;;;;;6252018;22;20058;-73
2023/10/31 07:10:36;;;;;;;0.75;0.15;;;;;;;;;;6284031;22;20378;-74
2023/10/31 07:13:01;;;;;;;3.90;0.45;;;;;;;;;;6284321;22;19995;-72
2023/10/31 07:15:27;;;;;;;0.20;0.10;;;;;;;;;;6283304;22;19995;-73
2023/10/31 07:17:54;;;;;;;3.17;0.20;;;;;;;;;;6286642;22;20667;-71
2023/10/31 07:20:20;;;;;;;0.10;0.00;;;;;;;;;;6253653;22;20019;-74
2023/10/31 07:22:45;;;;;;;0.50;0.20;;;;;;;;;;6286736;22;19999;-72
2023/10/31 07:25:10;;;;;;;1.35;0.30;;;;;;;;;;6256707;22;19999;-73
2023/10/31 07:27:38;;;;;;;0.95;0.15;;;;;;;;;;6284201;22;20328;-74
2023/10/31 07:30:06;;;;;;;0.35;0.10;;;;;;;;;;6257101;22;20023;-74
2023/10/31 07:32:31;;;;;;;1.27;0.20;;;;;;;;;;6260418;22;20007;-74
2023/10/31 07:34:57;;;;;;;0.68;0.15;;;;;;;;;;6259384;22;20005;-74
2023/10/31 07:37:22;;;;;;;0.40;0.13;;;;;;;;;;6259342;22;20061;-74
2023/10/31 07:39:50;;;;;;;0.68;0.10;;;;;;;;;;6287700;22;20074;-73
2023/10/31 07:42:16;;;;;;;0.30;0.10;;;;;;;;;;6286937;22;19992;-72
2023/10/31 07:44:41;;;;;;;0.82;0.10;;;;;;;;;;6258355;22;20077;-72
2023/10/31 07:47:06;;;;;;;0.20;0.10;;;;;;;;;;6287080;22;20072;-72
2023/10/31 07:49:31;;;;;;;0.20;0.10;;;;;;;;;;6286480;22;20245;-73
2023/10/31 07:51:57;;;;;;;1.10;0.10;;;;;;;;;;6285886;22;20952;-72
2023/10/31 07:54:22;;;;;;;1.17;0.20;;;;;;;;;;6260655;22;20000;-72
2023/10/31 07:56:47;;;;;;;0.40;0.10;;;;;;;;;;6258368;22;20086;-72
2023/10/31 07:59:12;;;;;;;0.17;0.10;;;;;;;;;;6288362;22;20209;-72
2023/10/31 08:01:38;;;;;;;1.02;0.30;;;;;;;;;;6284738;22;19999;-72
2023/10/31 08:04:05;;;;;;;0.55;0.17;;;;;;;;;;6288554;22;20401;-72
2023/10/31 08:06:31;;;;;;;0.17;0.15;;;;;;;;;;6258482;22;20033;-72
2023/10/31 08:08:56;;;;;;;0.57;0.20;;;;;;;;;;6260918;22;20034;-71
2023/10/31 08:11:21;;;;;;;1.10;0.20;;;;;;;;;;6286000;22;20484;-72
2023/10/31 08:13:47;;;;;;;0.93;0.20;;;;;;;;;;6286870;22;20054;-73
2023/10/31 08:16:17;;;;;;;0.45;0.10;;;;;;;;;;6287566;22;19995;-72
2023/10/31 08:18:44;;;;;;;0.50;0.20;;;;;;;;;;6286368;22;19995;-72
2023/10/31 08:21:11;;;;;;;0.43;0.17;;;;;;;;;;6260015;22;20049;-72
2023/10/31 08:23:36;;;;;;;0.20;0.10;;;;;;;;;;6257752;22;20472;-72
2023/10/31 08:26:02;;;;;;;0.38;0.20;;;;;;;;;;6288625;22;20010;-72
2023/10/31 08:28:30;;;;;;;0.65;0.10;;;;;;;;;;6286491;22;19999;-72
2023/10/31 08:30:55;;;;;;;0.45;0.10;;;;;;;;;;6288007;22;20010;-72
2023/10/31 08:33:20;;;;;;;0.82;0.20;;;;;;;;;;6286158;22;19999;-72
2023/10/31 08:35:48;;;;;;;0.90;0.30;;;;;;;;;;6286509;22;20082;-70
2023/10/31 08:38:13;;;;;;;0.45;0.10;;;;;;;;;;6287002;22;20264;-72
2023/10/31 08:40:41;;;;;;;0.98;0.38;;;;;;;;;;6256516;22;20034;-72
2023/10/31 08:43:06;;;;;;;0.30;0.20;;;;;;;;;;6259607;22;20026;-72
2023/10/31 08:45:34;;;;;;;1.48;0.30;;;;;;;;;;6257354;22;20507;-72
2023/10/31 08:48:00;;;;;;;0.70;0.20;;;;;;;;;;6252881;22;20010;-72
2023/10/31 08:50:25;;;;;;;1.00;0.40;;;;;;;;;;6286738;22;20007;-72
2023/10/31 08:52:51;;;;;;;1.80;0.60;;;;;;;;;;6250138;22;20087;-73
2023/10/31 08:55:16;;;;;;;2.08;0.60;;;;;;;;;;6257136;22;20675;-71
2023/10/31 08:57:41;;;;;;;2.08;0.60;;;;;;;;;;6255449;22;20057;-70
2023/10/31 09:00:07;;;;;;;4.40;1.60;;;;;;;;;;6283865;22;20069;-71
2023/10/31 09:02:32;;;;;;;8.10;2.40;;;;;;;;;;6256944;22;20702;-72
2023/10/31 09:04:59;;;;;;;5.93;3.30;;;;;;;;;;6285273;22;20391;-72
2023/10/31 09:07:24;;;;;;;4.00;1.50;;;;;;;;;;6287146;22;19999;-72
2023/10/31 09:09:50;;;;;;;1.93;0.50;;;;;;;;;;6256512;22;20110;-72
2023/10/31 09:12:15;;;;;;;1.70;0.70;;;;;;;;;;6286824;22;20210;-69
2023/10/31 09:14:42;;;;;;;0.87;0.30;;;;;;;;;;6257346;22;20543;-69
2023/10/31 09:17:07;;;;;;;1.45;0.60;;;;;;;;;;6285662;22;20218;-68
2023/10/31 09:19:32;;;;;;;1.88;0.57;;;;;;;;;;6256656;22;20069;-68
2023/10/31 09:21:58;;;;;;;1.17;0.40;;;;;;;;;;6256086;22;20007;-68
2023/10/31 09:24:23;;;;;;;0.28;0.10;;;;;;;;;;6257616;22;20222;-68
2023/10/31 09:26:49;;;;;;;2.60;0.20;;;;;;;;;;6283997;22;20010;-68
2023/10/31 09:29:16;;;;;;;0.95;0.30;;;;;;;;;;6259847;22;19999;-69
2023/10/31 09:31:41;;;;;;;1.05;0.30;;;;;;;;;;6283094;22;20010;-68
2023/10/31 09:34:07;;;;;;;0.57;0.30;;;;;;;;;;6257734;22;20003;-68
2023/10/31 09:36:34;;;;;;;1.27;0.38;;;;;;;;;;6257886;22;20229;-68
2023/10/31 09:39:03;;;;;;;2.80;0.90;;;;;;;;;;6256047;22;20022;-68
2023/10/31 09:41:28;;;;;;;2.30;0.70;;;;;;;;;;6259274;22;20007;-69
2023/10/31 09:43:54;;;;;;;0.50;0.30;;;;;;;;;;6283008;22;20367;-68
2023/10/31 09:46:20;;;;;;;0.50;0.30;;;;;;;;;;6257591;22;20026;-68
2023/10/31 09:48:46;;;;;;;0.93;0.40;;;;;;;;;;6257653;22;20003;-69
2023/10/31 09:51:11;;;;;;;1.45;0.30;;;;;;;;;;6284120;22;20003;-69
2023/10/31 09:53:38;;;;;;;0.85;0.30;;;;;;;;;;6286887;22;20074;-68
2023/10/31 09:56:04;;;;;;;1.38;0.40;;;;;;;;;;6282860;22;20003;-68
2023/10/31 09:58:29;;;;;;;2.50;0.95;;;;;;;;;;6260990;22;20702;-68
2023/10/31 10:00:55;;;;;;;0.95;0.40;;;;;;;;;;6256382;22;20412;-68
2023/10/31 10:03:21;;;;;;;0.20;0.20;;;;;;;;;;6286594;22;20056;-68
2023/10/31 10:05:47;;;;;;;3.00;1.08;;;;;;;;;;6285617;22;20007;-68
2023/10/31 10:08:14;;;;;;;2.60;0.88;;;;;;;;;;6257885;22;20250;-68
2023/10/31 10:10:39;;;;;;;1.95;0.50;;;;;;;;;;6283798;22;20069;-68
2023/10/31 10:13:04;;;;;;;1.37;0.50;;;;;;;;;;6285609;22;19999;-68
2023/10/31 10:15:32;;;;;;;1.38;0.40;;;;;;;;;;6257556;22;20302;-68
2023/10/31 10:18:00;;;;;;;2.03;0.20;;;;;;;;;;6258039;22;19999;-68
2023/10/31 10:20:25;;;;;;;1.17;0.40;;;;;;;;;;6257744;22;20038;-68
2023/10/31 10:22:50;;;;;;;1.43;0.40;;;;;;;;;;6256811;22;20077;-68
2023/10/31 10:25:18;;;;;;;1.33;0.32;;;;;;;;;;6285598;22;20214;-68
2023/10/31 10:27:43;;;;;;;2.47;1.08;;;;;;;;;;6256114;22;20098;-68
2023/10/31 10:30:09;;;;;;;2.20;0.50;;;;;;;;;;6285873;22;20145;-68
2023/10/31 10:32:35;;;;;;;1.25;0.32;;;;;;;;;;6256877;22;20003;-68
2023/10/31 10:35:00;;;;;;;1.15;0.30;;;;;;;;;;6252000;22;20096;-68
2023/10/31 10:37:27;;;;;;;1.17;0.30;;;;;;;;;;6282972;22;19995;-68
2023/10/31 10:39:55;;;;;;;1.83;0.50;;;;;;;;;;6286480;22;20665;-68
2023/10/31 10:42:26;;;;;;;0.98;0.30;;;;;;;;;;6258566;22;20082;-69
2023/10/31 10:44:54;;;;;;;2.55;0.88;;;;;;;;;;6256973;22;20397;-68
2023/10/31 10:47:22;;;;;;;1.65;0.55;;;;;;;;;;6258616;22;20021;-68
2023/10/31 10:49:48;;;;;;;1.35;0.40;;;;;;;;;;6282700;22;19995;-69
2023/10/31 10:52:20;;;;;;;1.35;0.40;;;;;;;;;;6256965;22;20349;-68
2023/10/31 10:55:01;;;;;;;1.10;0.30;;;;;;;;;;6254646;22;20006;-68
2023/10/31 10:57:26;;;;;;;1.88;0.50;;;;;;;;;;6257460;22;20064;-68
2023/10/31 10:59:56;;;;;;;2.40;0.50;;;;;;;;;;6284943;22;20003;-69
2023/10/31 11:02:22;;;;;;;2.42;0.80;;;;;;;;;;6256399;22;20262;-68
2023/10/31 11:04:54;;;;;;;2.05;0.57;;;;;;;;;;6285205;22;19995;-68
2023/10/31 11:07:20;;;;;;;1.98;0.52;;;;;;;;;;6258743;22;20207;-68
2023/10/31 11:09:46;;;;;;;2.13;0.50;;;;;;;;;;6287233;22;20392;-68
2023/10/31 11:12:15;;;;;;;1.52;0.40;;;;;;;;;;6259846;22;20007;-68
2023/10/31 11:14:41;;;;;;;0.60;0.30;;;;;;;;;;6287829;22;19999;-68
2023/10/31 11:17:11;;;;;;;0.77;0.30;;;;;;;;;;6284638;22;20750;-68
2023/10/31 11:19:36;;;;;;;;;;;;;;;;;;6286826;22;19996;-68
2023/10/31 11:22:02;;;;;;;0.73;0.30;;;;;;;;;;6259804;22;19910;-68
2023/10/31 11:24:36;;;;;;;1.50;0.40;;;;;;;;;;6258745;22;20004;-68
2023/10/31 11:27:02;;;;;;;1.38;0.45;;;;;;;;;;6287775;22;19996;-69
2023/10/31 11:29:30;;;;;;;2.05;0.40;;;;;;;;;;6256691;22;20084;-68
2023/10/31 11:31:56;;;;;;;0.55;0.20;;;;;;;;;;6286131;22;20007;-68
2023/10/31 11:34:21;;;;;;;1.15;0.47;;;;;;;;;;6287867;22;20002;-68
2023/10/31 11:36:50;;;;;;;2.53;0.35;;;;;;;;;;6284455;22;19996;-68
2023/10/31 11:39:20;;;;;;;0.50;0.30;;;;;;;;;;6259094;22;20003;-68
2023/10/31 11:41:54;;;;;;;0.52;0.20;;;;;;;;;;6284093;22;20375;-68
2023/10/31 11:44:21;;;;;;;1.10;0.40;;;;;;;;;;6259889;22;20003;-68
2023/10/31 11:46:50;;;;;;;0.73;0.20;;;;;;;;;;6286918;22;20022;-69
2023/10/31 11:49:15;;;;;;;0.65;0.25;;;;;;;;;;6286282;22;19995;-70
2023/10/31 11:51:41;;;;;;;2.28;0.60;;;;;;;;;;6258778;22;20022;-69
2023/10/31 11:54:09;;;;;;;1.08;0.47;;;;;;;;;;6259705;22;20709;-69
2023/10/31 11:56:37;;;;;;;2.80;0.43;;;;;;;;;;6258161;22;20003;-69
2023/10/31 11:59:06;;;;;;;2.55;0.70;;;;;;;;;;6286625;22;19995;-69
2023/10/31 12:01:32;;;;;;;1.88;0.55;;;;;;;;;;6287684;22;20006;-70
2023/10/31 12:03:57;;;;;;;0.75;0.30;;;;;;;;;;6258604;22;19999;-68
2023/10/31 12:06:22;;;;;;;1.20;0.30;;;;;;;;;;6258811;22;19999;-70
2023/10/31 12:08:48;;;;;;;0.63;0.30;;;;;;;;;;6286630;22;19999;-69
2023/10/31 12:11:17;;;;;;;1.42;0.50;;;;;;;;;;6285509;22;20470;-69
2023/10/31 12:13:52;;;;;;;3.08;0.70;;;;;;;;;;6257702;22;20030;-68
2023/10/31 12:16:17;;;;;;;1.25;0.40;;;;;;;;;;6281402;22;20003;-68
2023/10/31 12:18:45;;;;;;;1.08;0.32;;;;;;;;;;6257937;22;19996;-68
2023/10/31 12:21:14;;;;;;;2.20;0.60;;;;;;;;;;6286235;22;20049;-68
2023/10/31 12:23:39;;;;;;;1.40;0.40;;;;;;;;;;6258029;22;20073;-67
2023/10/31 12:26:05;;;;;;;1.08;0.30;;;;;;;;;;6259495;22;20458;-67
2023/10/31 12:28:30;;;;;;;1.85;0.50;;;;;;;;;;6257400;22;20003;-68
2023/10/31 12:30:57;;;;;;;0.82;0.20;;;;;;;;;;6285212;22;20014;-68
2023/10/31 12:33:27;;;;;;;1.17;0.28;;;;;;;;;;6284313;22;20409;-68
2023/10/31 12:35:56;;;;;;;1.88;0.30;;;;;;;;;;6283686;22;19998;-68
2023/10/31 12:38:24;;;;;;;1.27;0.30;;;;;;;;;;6285781;22;19995;-70
2023/10/31 12:40:49;;;;;;;2.67;0.38;;;;;;;;;;6284100;22;20037;-68
2023/10/31 12:43:15;;;;;;;0.65;0.30;;;;;;;;;;6251317;22;20114;-68
2023/10/31 12:45:40;;;;;;;1.00;0.30;;;;;;;;;;6282807;22;20011;-68
2023/10/31 12:48:06;;;;;;;0.73;0.27;;;;;;;;;;6257028;22;20611;-69
2023/10/31 12:50:32;;;;;;;1.42;0.30;;;;;;;;;;6285031;22;20241;-68
2023/10/31 12:53:03;;;;;;;0.60;0.20;;;;;;;;;;6256402;22;20007;-68
2023/10/31 12:55:28;;;;;;;1.90;0.30;;;;;;;;;;6254318;22;19999;-68
2023/10/31 12:57:54;;;;;;;1.67;0.30;;;;;;;;;;6256295;22;20060;-68
2023/10/31 13:00:28;;;;;;;1.15;0.30;;;;;;;;;;6283797;22;20003;-68
2023/10/31 13:03:01;;;;;;;0.90;0.30;;;;;;;;;;6258516;22;20000;-68
2023/10/31 13:05:27;;;;;;;0.93;0.20;;;;;;;;;;6285133;22;20049;-68
2023/10/31 13:07:55;;;;;;;1.25;0.30;;;;;;;;;;6259048;22;20008;-68
2023/10/31 13:10:22;;;;;;;1.58;0.40;;;;;;;;;;6282058;22;20169;-67
2023/10/31 13:12:47;;;;;;;0.40;0.10;;;;;;;;;;6255325;22;20003;-68
2023/10/31 13:15:13;;;;;;;0.85;0.20;;;;;;;;;;6255592;22;20100;-68
2023/10/31 13:17:41;;;;;;;1.10;0.40;;;;;;;;;;6257122;22;20003;-68
2023/10/31 13:20:09;;;;;;;2.38;0.50;;;;;;;;;;6286615;22;20005;-67
2023/10/31 13:22:35;;;;;;;2.05;0.60;;;;;;;;;;6283365;22;20044;-68
2023/10/31 13:25:04;;;;;;;1.52;0.40;;;;;;;;;;6257596;22;20006;-68
2023/10/31 13:27:30;;;;;;;1.55;0.30;;;;;;;;;;6255699;22;20007;-68
2023/10/31 13:29:56;;;;;;;1.75;0.50;;;;;;;;;;6257389;22;20073;-68
2023/10/31 13:32:21;;;;;;;1.07;0.33;;;;;;;;;;6284208;22;20106;-68
2023/10/31 13:34:46;;;;;;;1.98;0.30;;;;;;;;;;6284630;22;20222;-68
2023/10/31 13:37:14;;;;;;;1.15;0.28;;;;;;;;;;6285515;22;20086;-68
2023/10/31 13:39:39;;;;;;;1.27;0.22;;;;;;;;;;6255152;22;19995;-68
2023/10/31 13:42:05;;;;;;;2.33;0.50;;;;;;;;;;6287348;22;20086;-68
2023/10/31 13:44:30;;;;;;;0.73;0.28;;;;;;;;;;6255286;22;20003;-68
2023/10/31 13:46:55;;;;;;;0.98;0.30;;;;;;;;;;6255183;22;20098;-68
2023/10/31 13:49:20;;;;;;;2.17;0.50;;;;;;;;;;6255130;22;20285;-68
2023/10/31 13:51:46;;;;;;;1.23;0.30;;;;;;;;;;6257245;22;20265;-68
2023/10/31 13:54:11;;;;;;;1.88;0.40;;;;;;;;;;6285920;22;20206;-68
2023/10/31 13:56:39;;;;;;;1.70;0.40;;;;;;;;;;6253875;22;20121;-68
2023/10/31 13:59:04;;;;;;;0.77;0.30;;;;;;;;;;6285228;22;20210;-68
2023/10/31 14:01:30;;;;;;;3.73;0.50;;;;;;;;;;6255717;22;20435;-68
2023/10/31 14:03:55;;;;;;;1.77;0.40;;;;;;;;;;6259299;22;21062;-69
2023/10/31 14:06:20;;;;;;;3.42;0.60;;;;;;;;;;6255970;22;20189;-68
2023/10/31 14:08:46;;;;;;;2.45;0.43;;;;;;;;;;6252934;22;20000;-68
2023/10/31 14:11:11;;;;;;;2.88;0.47;;;;;;;;;;6255600;22;20079;-68
2023/10/31 14:13:37;;;;;;;2.63;0.60;;;;;;;;;;6285660;22;19995;-68
2023/10/31 14:16:02;;;;;;;2.45;0.63;;;;;;;;;;6284500;22;19996;-68
2023/10/31 14:18:28;;;;;;;3.33;0.60;;;;;;;;;;6283146;22;20003;-68
2023/10/31 14:20:53;;;;;;;2.42;0.70;;;;;;;;;;6256882;22;20076;-68
2023/10/31 14:23:18;;;;;;;2.40;0.60;;;;;;;;;;6284990;22;20025;-69
2023/10/31 14:25:44;;;;;;;3.05;0.70;;;;;;;;;;6283328;22;20396;-68
2023/10/31 14:28:09;;;;;;;1.70;0.50;;;;;;;;;;6252220;22;20331;-68
2023/10/31 14:30:34;;;;;;;2.47;0.60;;;;;;;;;;6284630;22;20316;-68
2023/10/31 14:32:59;;;;;;;2.40;0.60;;;;;;;;;;6283604;22;20221;-68
2023/10/31 14:35:25;;;;;;;2.47;0.63;;;;;;;;;;6285586;22;19995;-68